Time;durP1;ratioP1;P1;durP2;ratioP2;P2;SDS_P1;SDS_P2;PMS_P1;PMS_P2;Temp;Humidity;BMP_temperature;BMP_pressure;BME280_temperature;BME280_humidity;BME280_pressure;Samples;Min_cycle;Max_cycle;Signal;HPM_P1;HPM_P2
2021/12/14 00:00:27;;;;;;;19.43;17.87;;;7.60;99.90;;;;;;5070869;28;20713;-75
2021/12/14 00:02:55;;;;;;;19.97;18.53;;;7.50;99.90;;;;;;5071035;28;20457;-75
2021/12/14 00:05:24;;;;;;;20.57;18.97;;;7.50;99.90;;;;;;5071155;28;20862;-75
2021/12/14 00:07:53;;;;;;;21.23;19.53;;;7.50;99.90;;;;;;5070800;28;20450;-75
2021/12/14 00:10:43;;;;;;;21.47;19.80;;;7.40;99.90;;;;;;5070610;28;20551;-75
2021/12/14 00:13:22;;;;;;;20.87;19.37;;;7.50;99.90;;;;;;5070793;28;20507;-77
2021/12/14 00:15:51;;;;;;;20.93;19.33;;;7.50;99.90;;;;;;5080210;28;20415;-77
2021/12/14 00:18:18;;;;;;;20.40;18.80;;;7.40;99.90;;;;;;5096511;28;20438;-76
2021/12/14 00:20:49;;;;;;;20.57;19.07;;;7.40;99.90;;;;;;5096919;28;20449;-77
2021/12/14 00:26:04;;;;;;;19.17;17.87;;;7.40;99.90;;;;;;5076957;28;20505;-76
2021/12/14 00:28:35;;;;;;;20.40;18.80;;;7.40;99.90;;;;;;5073877;28;20457;-75
2021/12/14 00:31:05;;;;;;;20.47;18.87;;;7.30;99.90;;;;;;5070697;28;20481;-75
2021/12/14 00:33:36;;;;;;;20.00;18.57;;;7.20;99.90;;;;;;5070424;28;20451;-75
2021/12/14 00:36:05;;;;;;;19.03;17.73;;;7.30;99.90;;;;;;5070584;28;20454;-75
2021/12/14 00:38:34;;;;;;;19.20;17.90;;;7.30;99.90;;;;;;5070303;28;20488;-75
2021/12/14 00:41:05;;;;;;;19.60;18.00;;;7.30;99.90;;;;;;5070498;28;20498;-76
2021/12/14 00:43:33;;;;;;;20.80;19.13;;;7.30;99.90;;;;;;5069974;28;20479;-77
2021/12/14 00:46:01;;;;;;;20.00;18.60;;;7.30;99.90;;;;;;5070183;28;20468;-78
2021/12/14 00:48:28;;;;;;;19.73;18.07;;;7.50;99.90;;;;;;5070369;28;20447;-80
2021/12/14 00:50:57;;;;;;;23.00;21.30;;;7.40;99.90;;;;;;5070365;28;20447;-79
2021/12/14 00:53:26;;;;;;;20.87;19.17;;;7.30;99.90;;;;;;5070614;28;20465;-79
2021/12/14 00:55:54;;;;;;;20.43;18.73;;;7.30;99.90;;;;;;5070081;28;20452;-79
2021/12/14 00:58:22;;;;;;;21.80;20.10;;;7.20;99.90;;;;;;5070096;28;20447;-77
2021/12/14 01:00:56;;;;;;;20.43;19.00;;;7.20;99.90;;;;;;5070025;28;20473;-76
2021/12/14 01:03:24;;;;;;;20.30;18.90;;;7.20;99.90;;;;;;5070146;28;20493;-76
2021/12/14 01:05:54;;;;;;;21.47;19.67;;;7.10;99.90;;;;;;5070059;28;20487;-76
2021/12/14 01:08:25;;;;;;;22.07;20.00;;;7.10;99.90;;;;;;5070064;28;20441;-75
2021/12/14 01:11:00;;;;;;;21.47;19.87;;;7.10;99.90;;;;;;5073983;28;20433;-75
2021/12/14 01:13:29;;;;;;;21.80;20.10;;;7.10;99.90;;;;;;5073652;28;20818;-74
2021/12/14 01:16:13;;;;;;;22.53;20.63;;;7.10;99.90;;;;;;5073607;28;20820;-75
2021/12/14 01:18:47;;;;;;;21.80;20.10;;;7.00;99.90;;;;;;5072998;28;20747;-75
2021/12/14 01:21:25;;;;;;;22.90;21.27;;;7.10;99.90;;;;;;5073698;28;20983;-75
2021/12/14 01:24:01;;;;;;;20.80;19.33;;;7.10;99.90;;;;;;5073103;28;20500;-75
2021/12/14 01:26:30;;;;;;;23.33;21.40;;;7.10;99.90;;;;;;5072839;28;20575;-74
2021/12/14 01:28:57;;;;;;;22.23;20.47;;;7.20;99.90;;;;;;5073017;28;20976;-74
2021/12/14 01:31:33;;;;;;;24.17;22.13;;;7.20;99.90;;;;;;5073368;28;20454;-74
2021/12/14 01:34:05;;;;;;;23.17;21.33;;;7.10;99.90;;;;;;5073265;28;20975;-75
2021/12/14 01:36:41;;;;;;;22.77;21.07;;;7.20;99.90;;;;;;5073423;28;20453;-75
2021/12/14 01:39:22;;;;;;;22.37;20.63;;;7.20;99.90;;;;;;5073808;28;20470;-75
2021/12/14 01:42:01;;;;;;;21.17;19.63;;;7.20;99.90;;;;;;5073184;28;20460;-75
2021/12/14 01:44:32;;;;;;;22.33;20.43;;;7.10;99.90;;;;;;5073250;28;20485;-74
2021/12/14 01:47:05;;;;;;;23.60;21.50;;;7.10;99.90;;;;;;5066441;28;20454;-74
2021/12/14 01:49:32;;;;;;;22.63;20.73;;;7.10;99.90;;;;;;5060345;28;20450;-74
2021/12/14 01:52:03;;;;;;;24.40;22.30;;;7.00;99.90;;;;;;5062241;28;20451;-76
2021/12/14 01:54:34;;;;;;;23.53;21.40;;;7.00;99.90;;;;;;5064686;28;20807;-76
2021/12/14 01:57:04;;;;;;;23.20;21.30;;;7.00;99.90;;;;;;5061294;28;20457;-76
2021/12/14 01:59:35;;;;;;;23.43;21.10;;;7.00;99.90;;;;;;5060319;28;20458;-73
2021/12/14 02:02:18;;;;;;;24.20;22.10;;;6.90;99.90;;;;;;5063408;28;20904;-75
2021/12/14 02:04:47;;;;;;;25.87;23.23;;;6.90;99.90;;;;;;5061877;28;20591;-76
2021/12/14 02:07:17;;;;;;;27.37;24.83;;;6.90;99.90;;;;;;5062350;28;20783;-75
2021/12/14 02:09:45;;;;;;;25.37;23.10;;;6.90;99.90;;;;;;5060082;28;20816;-74
2021/12/14 02:12:15;;;;;;;25.47;22.97;;;6.80;99.90;;;;;;5065424;28;20955;-77
2021/12/14 02:14:42;;;;;;;24.73;22.43;;;6.90;99.90;;;;;;5061163;28;20807;-77
2021/12/14 02:17:14;;;;;;;23.80;21.90;;;6.90;99.90;;;;;;5063051;28;20457;-76
2021/12/14 02:19:41;;;;;;;25.53;23.03;;;6.80;99.90;;;;;;5061254;28;20460;-77
2021/12/14 02:22:10;;;;;;;25.17;22.50;;;6.80;99.90;;;;;;5062479;28;20502;-77
2021/12/14 02:24:40;;;;;;;24.10;21.90;;;6.70;99.90;;;;;;5051048;28;20495;-75
2021/12/14 02:27:07;;;;;;;25.50;23.20;;;6.70;99.90;;;;;;5051491;28;20843;-76
2021/12/14 02:29:37;;;;;;;27.03;24.63;;;6.70;99.90;;;;;;5051154;28;20541;-76
2021/12/14 02:32:09;;;;;;;24.97;22.37;;;6.60;99.90;;;;;;5051351;28;20452;-76
2021/12/14 02:34:39;;;;;;;25.37;23.17;;;6.60;99.90;;;;;;5056481;28;20460;-76
2021/12/14 02:37:05;;;;;;;26.17;23.53;;;6.50;99.90;;;;;;5061453;28;20445;-75
2021/12/14 02:39:48;;;;;;;24.60;22.30;;;6.60;99.90;;;;;;5059867;28;20509;-76
2021/12/14 02:42:20;;;;;;;26.93;24.37;;;6.70;99.90;;;;;;5060085;28;20437;-76
2021/12/14 02:44:48;;;;;;;26.33;23.73;;;6.60;99.90;;;;;;5060035;28;20490;-75
2021/12/14 02:47:17;;;;;;;24.47;22.17;;;6.50;99.90;;;;;;5059220;28;20458;-75
2021/12/14 02:49:44;;;;;;;26.77;23.80;;;6.50;99.90;;;;;;5062320;28;20803;-76
2021/12/14 02:52:14;;;;;;;27.33;24.63;;;6.50;99.90;;;;;;5059756;28;20443;-75
2021/12/14 02:54:45;;;;;;;28.00;25.13;;;6.50;99.90;;;;;;5060821;28;20534;-74
2021/12/14 02:57:15;;;;;;;29.70;25.73;;;6.50;99.90;;;;;;5061483;28;20537;-75
2021/12/14 02:59:44;;;;;;;28.37;25.63;;;6.50;99.90;;;;;;5060407;28;20814;-75
2021/12/14 03:02:15;;;;;;;30.03;26.27;;;6.50;99.90;;;;;;5062273;28;20458;-75
2021/12/14 03:04:44;;;;;;;27.40;24.67;;;6.50;99.90;;;;;;5060315;28;20490;-74
2021/12/14 03:07:13;;;;;;;29.90;26.90;;;6.50;99.90;;;;;;5059474;28;20448;-74
2021/12/14 03:09:55;;;;;;;27.37;24.53;;;6.60;99.90;;;;;;5060716;28;20455;-75
2021/12/14 03:12:28;;;;;;;26.63;23.73;;;6.50;99.90;;;;;;5058648;28;20435;-74
2021/12/14 03:14:57;;;;;;;26.00;23.30;;;6.50;99.90;;;;;;5061292;28;20785;-75
2021/12/14 03:17:24;;;;;;;25.80;23.10;;;6.50;99.90;;;;;;5060351;28;20438;-76
2021/12/14 03:19:56;;;;;;;29.27;25.57;;;6.40;99.90;;;;;;5059012;28;20455;-75
2021/12/14 03:22:28;;;;;;;25.97;23.37;;;6.40;99.90;;;;;;5059821;28;20978;-75
2021/12/14 03:24:56;;;;;;;28.30;24.93;;;6.40;99.90;;;;;;5053635;28;20487;-75
2021/12/14 03:27:23;;;;;;;26.33;23.83;;;6.40;99.90;;;;;;5051193;28;20513;-76
2021/12/14 03:29:50;;;;;;;27.70;24.80;;;6.50;99.90;;;;;;5051294;28;20459;-76
2021/12/14 03:32:16;;;;;;;29.03;26.03;;;6.50;99.90;;;;;;5050605;28;20452;-76
2021/12/14 03:34:43;;;;;;;28.67;25.63;;;6.50;99.90;;;;;;5051115;28;20446;-75
2021/12/14 03:37:12;;;;;;;27.73;25.00;;;6.50;99.90;;;;;;5051292;28;20843;-77
2021/12/14 03:39:42;;;;;;;36.20;28.53;;;6.60;99.90;;;;;;5051057;28;20461;-77
2021/12/14 03:42:14;;;;;;;37.23;29.30;;;6.60;99.90;;;;;;5051074;28;20971;-78
2021/12/14 03:44:44;;;;;;;30.97;27.67;;;6.60;99.90;;;;;;5050876;28;20591;-77
2021/12/14 03:47:14;;;;;;;29.73;26.80;;;6.70;99.90;;;;;;5051114;28;20466;-77
2021/12/14 03:49:45;;;;;;;31.20;27.10;;;6.60;99.90;;;;;;5050911;28;20453;-77
2021/12/14 03:52:14;;;;;;;30.23;27.27;;;6.60;99.90;;;;;;5050776;28;20453;-77
2021/12/14 03:54:43;;;;;;;33.40;26.60;;;6.50;99.90;;;;;;5050676;28;20459;-77
2021/12/14 03:57:12;;;;;;;32.63;26.50;;;6.50;99.90;;;;;;5050766;28;20458;-76
2021/12/14 03:59:39;;;;;;;37.03;28.10;;;6.50;99.90;;;;;;5050759;28;20516;-77
2021/12/14 04:02:10;;;;;;;28.90;26.00;;;6.50;99.90;;;;;;5065529;28;20459;-77
2021/12/14 04:04:42;;;;;;;25.87;23.50;;;6.50;99.90;;;;;;5070744;28;20891;-76
2021/12/14 04:07:12;;;;;;;23.93;22.00;;;6.40;99.90;;;;;;5070807;28;20463;-77
2021/12/14 04:09:40;;;;;;;25.57;22.93;;;6.50;99.90;;;;;;5070747;28;20453;-76
2021/12/14 04:12:09;;;;;;;26.33;23.70;;;6.50;99.90;;;;;;5070633;28;20991;-77
2021/12/14 04:14:40;;;;;;;26.37;23.93;;;6.50;99.90;;;;;;5070747;28;20454;-76
2021/12/14 04:17:07;;;;;;;25.97;23.23;;;6.50;99.90;;;;;;5070580;28;20458;-78
2021/12/14 04:19:35;;;;;;;26.30;23.77;;;6.60;99.90;;;;;;5070581;28;20465;-77
2021/12/14 04:22:06;;;;;;;25.33;22.73;;;6.60;99.90;;;;;;5070504;28;20579;-78
2021/12/14 04:24:37;;;;;;;27.97;24.43;;;6.60;99.90;;;;;;5070670;28;20969;-77
2021/12/14 04:27:08;;;;;;;27.07;24.30;;;6.70;99.90;;;;;;5070844;28;20463;-78
2021/12/14 04:29:35;;;;;;;25.63;22.97;;;6.60;99.90;;;;;;5071255;28;20455;-78
2021/12/14 04:32:05;;;;;;;27.10;24.30;;;6.50;99.90;;;;;;5070685;28;20467;-79
2021/12/14 04:34:33;;;;;;;26.13;23.43;;;6.40;99.90;;;;;;5071092;28;20439;-79
2021/12/14 04:37:02;;;;;;;27.93;25.00;;;6.40;99.90;;;;;;5070628;28;20819;-77
2021/12/14 04:39:36;;;;;;;26.80;24.07;;;6.40;99.90;;;;;;5070770;28;20826;-77
2021/12/14 04:53:41;;;;;;;25.13;22.80;;;6.20;99.90;;;;;;5085484;28;20493;-79
2021/12/14 04:56:11;;;;;;;26.67;24.23;;;6.10;99.90;;;;;;5078970;28;20446;-77
2021/12/14 04:58:43;;;;;;;27.83;24.87;;;5.90;99.90;;;;;;5077132;28;20448;-76
2021/12/14 05:01:12;;;;;;;28.20;25.60;;;5.90;99.90;;;;;;5074022;28;20808;-77
2021/12/14 05:03:44;;;;;;;26.93;24.13;;;5.90;99.90;;;;;;5073861;28;20477;-78
2021/12/14 05:06:16;;;;;;;25.80;23.13;;;5.80;99.90;;;;;;5073323;28;20487;-76
2021/12/14 05:11:30;;;;;;;26.87;24.00;;;5.80;99.90;;;;;;5072974;28;20428;-78
2021/12/14 05:14:05;;;;;;;28.20;25.23;;;5.80;99.90;;;;;;5073578;28;20500;-76
2021/12/14 05:16:32;;;;;;;26.37;23.57;;;5.80;99.90;;;;;;5073702;28;21011;-76
2021/12/14 05:19:05;;;;;;;27.40;24.63;;;5.70;99.90;;;;;;5073548;28;20460;-77
2021/12/14 05:21:34;;;;;;;27.37;24.97;;;5.70;99.90;;;;;;5073756;28;20471;-76
2021/12/14 05:24:04;;;;;;;33.53;25.53;;;5.70;99.90;;;;;;5073517;28;20455;-76
2021/12/14 05:26:30;;;;;;;27.70;24.60;;;5.70;99.90;;;;;;5073779;28;20920;-82
2021/12/14 05:28:58;;;;;;;29.23;25.63;;;5.70;99.90;;;;;;5074084;28;20814;-82
2021/12/14 05:31:25;;;;;;;29.90;24.40;;;5.80;99.90;;;;;;5073803;28;20455;-81
2021/12/14 05:33:52;;;;;;;28.17;24.80;;;5.80;99.90;;;;;;5074738;28;20457;-81
2021/12/14 05:36:22;;;;;;;26.90;23.80;;;5.80;99.90;;;;;;5074229;28;20453;-82
2021/12/14 05:38:58;;;;;;;27.37;24.37;;;5.80;99.90;;;;;;5073641;28;20451;-81
2021/12/14 05:44:15;;;;;;;27.53;22.30;;;5.60;99.90;;;;;;5073548;28;20427;-80
2021/12/14 05:46:50;;;;;;;24.00;21.67;;;5.60;99.90;;;;;;5073254;28;20499;-80
2021/12/14 05:49:18;;;;;;;24.07;21.47;;;5.60;99.90;;;;;;5073734;28;20565;-81
2021/12/14 05:51:47;;;;;;;25.07;20.03;;;5.50;99.90;;;;;;5073311;28;20455;-81
2021/12/14 05:54:19;;;;;;;24.30;21.80;;;5.40;99.90;;;;;;5073415;28;20787;-82
2021/12/14 05:56:46;;;;;;;25.93;23.23;;;5.40;99.90;;;;;;5073299;28;20537;-78
2021/12/14 05:59:18;;;;;;;22.27;20.20;;;5.40;99.90;;;;;;5079182;28;20459;-77
2021/12/14 06:01:45;;;;;;;25.10;21.63;;;5.40;99.90;;;;;;5072737;28;20444;-76
2021/12/14 06:04:12;;;;;;;23.87;21.47;;;5.40;99.90;;;;;;5072515;28;20453;-75
2021/12/14 06:06:41;;;;;;;22.30;20.30;;;5.60;99.90;;;;;;5067703;28;20480;-77
2021/12/14 06:09:12;;;;;;;24.30;21.70;;;5.50;99.90;;;;;;5062606;28;20443;-77
2021/12/14 06:11:41;;;;;;;24.70;22.23;;;5.50;99.90;;;;;;5061444;28;20448;-77
2021/12/14 06:14:14;;;;;;;27.03;21.40;;;5.50;99.90;;;;;;5061908;28;20503;-77
2021/12/14 06:16:41;;;;;;;24.97;22.47;;;5.40;99.90;;;;;;5069585;28;20805;-78
2021/12/14 06:19:18;;;;;;;27.50;22.10;;;5.30;99.90;;;;;;5072973;28;20448;-78
2021/12/14 06:21:47;;;;;;;24.90;22.53;;;5.40;99.90;;;;;;5069925;28;20439;-77
2021/12/14 06:24:16;;;;;;;24.33;21.93;;;5.20;99.90;;;;;;5067640;28;20467;-76
2021/12/14 06:26:45;;;;;;;26.97;22.70;;;5.20;99.90;;;;;;5066075;28;20489;-76
2021/12/14 06:29:14;;;;;;;26.43;23.27;;;5.30;99.90;;;;;;5067697;28;20461;-75
2021/12/14 06:31:42;;;;;;;25.53;22.73;;;5.30;99.90;;;;;;5072406;28;20447;-75
2021/12/14 06:34:20;;;;;;;25.90;23.30;;;5.30;99.90;;;;;;5072260;28;20489;-79
2021/12/14 06:37:54;;;;;;;28.13;22.57;;;5.30;99.90;;;;;;5072477;28;20517;-78
2021/12/14 06:40:27;;;;;;;25.07;22.50;;;5.30;99.90;;;;;;5072494;28;20888;-78
2021/12/14 06:42:56;;;;;;;25.90;21.80;;;5.30;99.90;;;;;;5072370;28;20470;-78
2021/12/14 06:45:25;;;;;;;25.97;22.27;;;5.30;99.90;;;;;;5072156;28;20492;-77
2021/12/14 06:47:54;;;;;;;28.00;25.00;;;5.30;99.90;;;;;;5071753;28;20844;-78
2021/12/14 06:50:25;;;;;;;25.83;23.27;;;5.20;99.90;;;;;;5072177;28;20451;-77
2021/12/14 06:52:59;;;;;;;26.60;23.53;;;5.20;99.90;;;;;;5072093;28;20459;-78
2021/12/14 06:55:28;;;;;;;25.70;23.10;;;5.20;99.90;;;;;;5071921;28;20488;-78
2021/12/14 06:58:07;;;;;;;23.63;21.23;;;5.40;99.90;;;;;;5074905;28;20480;-86
2021/12/14 07:00:34;;;;;;;23.40;21.20;;;5.20;99.90;;;;;;5074265;28;20432;-78
2021/12/14 07:03:01;;;;;;;25.60;22.90;;;5.30;99.90;;;;;;5071911;28;20461;-76
2021/12/14 07:05:29;;;;;;;24.53;22.30;;;5.30;99.90;;;;;;5071587;28;20488;-75
2021/12/14 07:07:57;;;;;;;23.00;20.90;;;5.20;99.90;;;;;;5070768;28;20461;-75
2021/12/14 07:10:24;;;;;;;25.63;22.97;;;5.20;99.90;;;;;;5071601;28;20447;-74
2021/12/14 07:12:52;;;;;;;26.23;23.20;;;5.20;99.90;;;;;;5071412;28;20451;-75
2021/12/14 07:15:23;;;;;;;25.03;22.43;;;5.20;99.90;;;;;;5071252;28;20468;-75
2021/12/14 07:17:59;;;;;;;25.17;22.50;;;5.10;99.90;;;;;;5071352;28;20482;-75
2021/12/14 07:20:31;;;;;;;21.53;19.90;;;5.10;99.90;;;;;;5071582;28;20447;-74
2021/12/14 07:23:00;;;;;;;22.47;20.30;;;5.00;99.90;;;;;;5070820;28;20483;-74
2021/12/14 07:25:30;;;;;;;21.43;19.47;;;5.00;99.90;;;;;;5071295;28;20902;-75
2021/12/14 07:27:59;;;;;;;22.67;20.87;;;5.00;99.90;;;;;;5071571;28;20455;-76
2021/12/14 07:30:31;;;;;;;23.67;21.27;;;5.00;99.90;;;;;;5071161;28;20462;-76
2021/12/14 07:33:02;;;;;;;23.47;20.93;;;5.00;99.90;;;;;;5071530;28;20953;-76
2021/12/14 07:35:46;;;;;;;21.63;19.70;;;5.00;99.90;;;;;;5071073;28;20813;-77
2021/12/14 07:38:33;;;;;;;26.00;23.17;;;5.00;99.90;;;;;;5071227;28;20865;-76
2021/12/14 07:41:05;;;;;;;25.93;23.33;;;5.00;99.90;;;;;;5071237;28;20465;-76
2021/12/14 07:43:36;;;;;;;25.70;22.00;;;5.00;99.90;;;;;;5071142;28;20443;-75
2021/12/14 07:46:14;;;;;;;24.60;21.87;;;4.90;99.90;;;;;;5070955;28;20851;-75
2021/12/14 07:48:44;;;;;;;24.33;22.13;;;5.00;99.90;;;;;;5070869;28;20467;-75
2021/12/14 07:51:12;;;;;;;29.20;22.83;;;5.10;99.90;;;;;;5071054;28;20949;-75
2021/12/14 07:53:42;;;;;;;22.90;20.73;;;5.00;99.90;;;;;;5070737;28;20463;-75
2021/12/14 07:56:09;;;;;;;24.60;22.37;;;5.00;99.90;;;;;;5070700;28;20443;-78
2021/12/14 07:58:42;;;;;;;23.63;21.40;;;4.90;99.90;;;;;;5070860;28;20459;-75
2021/12/14 08:01:10;;;;;;;25.07;22.73;;;4.90;99.90;;;;;;5070237;28;20941;-74
2021/12/14 08:06:53;;;;;;;25.00;22.20;;;4.90;99.90;;;;;;5030722;28;20480;-77
2021/12/14 08:09:45;;;;;;;23.93;21.80;;;4.90;99.90;;;;;;5070198;28;20945;-77
2021/12/14 08:12:26;;;;;;;20.30;18.80;;;5.10;99.90;;;;;;5070140;28;20460;-75
2021/12/14 08:15:13;;;;;;;23.67;21.67;;;5.20;99.90;;;;;;5070450;28;20444;-75
2021/12/14 08:17:40;;;;;;;22.73;21.03;;;5.10;99.90;;;;;;5070286;28;20439;-75
2021/12/14 08:20:11;;;;;;;21.73;20.30;;;5.10;99.90;;;;;;5070006;28;20474;-74
2021/12/14 08:22:41;;;;;;;23.37;21.10;;;5.10;99.90;;;;;;5069949;28;20498;-76
2021/12/14 08:25:12;;;;;;;25.03;23.03;;;5.20;99.90;;;;;;5070288;28;20952;-75
2021/12/14 08:27:41;;;;;;;21.70;20.03;;;5.30;99.90;;;;;;5070839;28;20424;-75
2021/12/14 08:30:13;;;;;;;21.23;19.60;;;5.40;99.90;;;;;;5070087;28;20457;-75
2021/12/14 08:32:41;;;;;;;21.57;20.07;;;5.30;99.90;;;;;;5070077;28;20451;-76
2021/12/14 08:35:11;;;;;;;22.63;20.93;;;5.30;99.90;;;;;;5070285;28;20847;-75
2021/12/14 08:37:42;;;;;;;20.17;18.77;;;5.30;99.90;;;;;;5070113;28;20506;-75
2021/12/14 08:40:15;;;;;;;20.50;19.00;;;5.40;99.90;;;;;;5070250;28;20975;-75
2021/12/14 08:42:50;;;;;;;20.13;18.63;;;5.50;99.90;;;;;;5070371;28;20537;-76
2021/12/14 08:45:26;;;;;;;19.80;18.50;;;5.60;99.90;;;;;;5070386;28;20828;-76
2021/12/14 08:47:56;;;;;;;19.93;18.53;;;5.50;99.90;;;;;;5070185;28;20478;-76
2021/12/14 08:50:23;;;;;;;18.93;17.43;;;5.70;99.90;;;;;;5070099;28;20453;-76
2021/12/14 08:52:51;;;;;;;20.97;19.47;;;5.90;99.90;;;;;;5070160;28;20814;-75
2021/12/14 08:55:22;;;;;;;20.07;18.63;;;5.80;99.90;;;;;;5070500;28;20457;-76
2021/12/14 08:57:49;;;;;;;19.30;17.87;;;5.90;99.90;;;;;;5069766;28;20451;-75
2021/12/14 09:00:24;;;;;;;20.00;18.70;;;6.00;99.90;;;;;;5070187;28;20455;-73
2021/12/14 09:02:58;;;;;;;21.10;19.30;;;5.90;99.90;;;;;;5049910;28;20448;-75
2021/12/14 09:05:29;;;;;;;20.00;18.60;;;5.80;99.90;;;;;;5050314;28;20459;-76
2021/12/14 09:07:56;;;;;;;19.10;17.60;;;6.00;99.90;;;;;;5049955;28;20542;-75
2021/12/14 09:10:27;;;;;;;20.73;19.10;;;6.00;99.90;;;;;;5050434;28;20450;-75
2021/12/14 09:12:57;;;;;;;20.07;18.47;;;6.20;99.90;;;;;;5051010;28;20434;-76
2021/12/14 09:15:30;;;;;;;19.17;17.70;;;6.30;99.90;;;;;;5050407;28;20457;-77
2021/12/14 09:17:58;;;;;;;17.47;16.20;;;6.40;99.90;;;;;;5050461;28;20450;-76
2021/12/14 09:20:28;;;;;;;18.00;16.77;;;6.80;99.90;;;;;;5050285;28;20452;-75
2021/12/14 09:22:58;;;;;;;16.70;15.50;;;7.30;99.90;;;;;;5050407;28;20843;-75
2021/12/14 09:25:29;;;;;;;17.47;16.30;;;7.60;99.90;;;;;;5050712;28;20451;-76
2021/12/14 09:27:58;;;;;;;16.53;15.40;;;7.70;99.90;;;;;;5073008;28;20467;-77
2021/12/14 09:30:30;;;;;;;14.73;13.63;;;8.40;99.90;;;;;;5075815;28;20440;-77
2021/12/14 09:32:57;;;;;;;16.43;15.17;;;9.10;99.90;;;;;;5077644;28;21003;-78
2021/12/14 09:35:26;;;;;;;16.73;15.63;;;9.30;99.90;;;;;;5060736;28;20452;-76
2021/12/14 09:37:56;;;;;;;19.40;17.60;;;9.40;99.90;;;;;;5057208;28;20447;-78
2021/12/14 09:40:25;;;;;;;22.37;20.53;;;9.90;99.90;;;;;;5059406;28;20449;-79
2021/12/14 09:42:53;;;;;;;29.10;26.27;;;9.60;99.90;;;;;;5052918;28;20954;-76
2021/12/14 09:45:24;;;;;;;21.23;19.30;;;9.70;99.90;;;;;;5052854;28;20822;-78
2021/12/14 09:47:53;;;;;;;20.33;18.63;;;9.60;99.90;;;;;;5052519;28;20837;-76
2021/12/14 09:50:25;;;;;;;18.50;17.10;;;9.80;99.90;;;;;;5052713;28;20451;-75
2021/12/14 09:52:52;;;;;;;17.30;16.00;;;9.70;99.90;;;;;;5052527;28;20451;-75
2021/12/14 09:55:22;;;;;;;17.37;16.03;;;10.90;99.90;;;;;;5052364;28;20444;-77
2021/12/14 09:57:52;;;;;;;19.57;17.97;;;11.10;99.90;;;;;;5052973;28;20440;-77
2021/12/14 10:00:23;;;;;;;18.77;17.33;;;11.20;99.90;;;;;;5052728;28;20456;-74
2021/12/14 10:02:56;;;;;;;20.00;18.37;;;10.60;99.90;;;;;;5073026;28;20655;-77
2021/12/14 10:05:28;;;;;;;21.83;20.10;;;10.20;99.90;;;;;;5072570;28;20786;-77
2021/12/14 10:07:57;;;;;;;23.67;18.93;;;10.00;99.90;;;;;;5072563;28;20490;-77
2021/12/14 10:10:24;;;;;;;20.60;18.73;;;10.00;99.90;;;;;;5072373;28;20447;-76
2021/12/14 10:12:54;;;;;;;22.17;20.30;;;9.60;99.90;;;;;;5072703;28;20451;-76
2021/12/14 10:15:27;;;;;;;20.43;18.73;;;9.00;99.90;;;;;;5072304;28;20455;-75
2021/12/14 10:17:59;;;;;;;19.80;18.40;;;8.90;99.90;;;;;;5072284;28;20454;-76
2021/12/14 10:20:29;;;;;;;21.43;19.60;;;8.70;99.90;;;;;;5072472;28;20455;-76
2021/12/14 10:22:56;;;;;;;20.23;18.70;;;8.60;99.90;;;;;;5071819;28;21004;-76
2021/12/14 10:25:26;;;;;;;19.03;17.57;;;8.50;99.90;;;;;;5072338;28;20439;-77
2021/12/14 10:27:54;;;;;;;20.40;18.63;;;8.80;99.90;;;;;;5071910;28;20514;-78
2021/12/14 10:30:24;;;;;;;20.93;19.13;;;8.80;99.90;;;;;;5071924;28;20980;-77
2021/12/14 10:32:52;;;;;;;20.97;19.27;;;8.70;99.90;;;;;;5071776;28;20455;-78
2021/12/14 10:35:24;;;;;;;22.03;19.83;;;8.70;99.90;;;;;;5072212;28;20458;-79
2021/12/14 10:37:57;;;;;;;20.23;18.63;;;8.70;99.90;;;;;;5071839;28;20466;-78
2021/12/14 10:43:15;;;;;;;19.47;17.87;;;8.70;99.90;;;;;;5071636;28;20439;-77
2021/12/14 10:45:51;;;;;;;20.00;18.43;;;8.80;99.90;;;;;;5072063;28;20446;-77
2021/12/14 10:48:21;;;;;;;20.07;18.57;;;9.00;99.90;;;;;;5071699;28;20489;-78
2021/12/14 10:50:52;;;;;;;21.23;19.53;;;9.30;99.90;;;;;;5072075;28;20827;-79
2021/12/14 10:53:20;;;;;;;19.17;17.40;;;9.50;99.90;;;;;;5071825;28;20458;-78
2021/12/14 10:55:51;;;;;;;19.00;17.70;;;10.10;99.90;;;;;;5071523;28;20512;-78
2021/12/14 10:58:20;;;;;;;17.87;16.30;;;10.50;99.90;;;;;;5071732;28;20439;-77
2021/12/14 11:00:53;;;;;;;20.13;18.47;;;10.50;99.90;;;;;;5071500;28;20513;-77
2021/12/14 11:03:23;;;;;;;18.57;17.23;;;10.80;99.90;;;;;;5071451;28;20454;-78
2021/12/14 11:05:57;;;;;;;18.47;17.20;;;11.50;99.90;;;;;;5063041;28;20456;-77
2021/12/14 11:08:41;;;;;;;21.07;18.67;;;11.60;99.90;;;;;;5056758;28;20479;-78
2021/12/14 11:11:11;;;;;;;21.67;19.40;;;11.20;99.90;;;;;;5071154;28;20451;-77
2021/12/14 11:13:42;;;;;;;19.83;17.97;;;11.10;99.90;;;;;;5071156;28;20451;-78
2021/12/14 11:16:16;;;;;;;17.80;16.53;;;10.80;99.90;;;;;;5071279;28;20530;-78
2021/12/14 11:18:44;;;;;;;18.57;17.27;;;10.90;99.90;;;;;;5071237;28;21003;-78
2021/12/14 11:21:15;;;;;;;18.73;17.23;;;10.80;99.90;;;;;;5071257;28;20512;-78
2021/12/14 11:23:45;;;;;;;20.87;19.37;;;10.90;99.90;;;;;;5071126;28;20490;-78
2021/12/14 11:26:15;;;;;;;19.97;18.30;;;11.00;99.90;;;;;;5070411;28;20945;-78
2021/12/14 11:28:46;;;;;;;19.40;17.90;;;10.90;99.90;;;;;;5071063;28;20867;-77
2021/12/14 11:31:18;;;;;;;19.10;17.70;;;11.00;99.90;;;;;;5071040;28;20454;-79
2021/12/14 11:33:51;;;;;;;19.17;17.67;;;11.40;99.90;;;;;;5070910;28;20478;-77
2021/12/14 11:36:24;;;;;;;19.53;17.73;;;11.60;99.90;;;;;;5070347;28;20466;-78
2021/12/14 11:38:57;;;;;;;17.93;16.43;;;11.90;99.90;;;;;;5071212;28;20443;-79
2021/12/14 11:41:40;;;;;;;18.57;17.03;;;12.10;99.90;;;;;;5070977;28;20965;-78
2021/12/14 11:44:17;;;;;;;18.27;16.67;;;12.40;99.90;;;;;;5071284;28;20622;-79
2021/12/14 11:47:01;;;;;;;17.70;16.30;;;12.60;99.90;;;;;;5072221;28;20479;-87
2021/12/14 11:49:43;;;;;;;19.60;17.90;;;13.20;99.90;;;;;;5080635;28;20455;-86
2021/12/14 11:52:12;;;;;;;19.40;17.80;;;13.60;99.90;;;;;;5074495;28;20470;-84
2021/12/14 11:54:47;;;;;;;17.97;16.83;;;13.50;99.90;;;;;;5075083;28;20462;-79
2021/12/14 11:57:17;;;;;;;18.70;17.20;;;13.70;99.90;;;;;;5070114;28;20851;-81
2021/12/14 11:59:44;;;;;;;19.40;17.80;;;13.50;99.90;;;;;;5072099;28;20466;-79
2021/12/14 12:03:02;;;;;;;18.80;17.40;;;13.40;99.90;;;;;;5070417;28;20833;-79
2021/12/14 12:05:31;;;;;;;18.47;17.27;;;12.90;99.90;;;;;;5052255;28;20463;-78
2021/12/14 12:10:54;;;;;;;18.40;16.63;;;13.50;99.90;;;;;;5070408;28;20640;-81
2021/12/14 12:13:32;;;;;;;19.37;17.97;;;14.20;99.90;;;;;;5070354;28;20923;-80
2021/12/14 12:16:10;;;;;;;19.27;17.63;;;14.60;99.90;;;;;;5070729;28;20435;-80
2021/12/14 12:18:36;;;;;;;17.47;16.27;;;14.70;99.90;;;;;;5070122;28;20443;-79
2021/12/14 12:21:05;;;;;;;19.73;18.13;;;15.10;99.90;;;;;;5070239;28;20443;-79
2021/12/14 12:23:34;;;;;;;16.87;15.87;;;15.20;98.80;;;;;;5070262;28;20899;-79
2021/12/14 12:26:09;;;;;;;18.30;16.90;;;15.40;98.80;;;;;;5070260;28;21020;-79
2021/12/14 12:28:39;;;;;;;17.70;16.60;;;14.90;99.50;;;;;;5069922;28;20577;-77
2021/12/14 12:31:12;;;;;;;18.00;16.70;;;14.80;99.40;;;;;;5070215;28;20459;-79
2021/12/14 12:33:41;;;;;;;18.67;17.47;;;13.90;99.90;;;;;;5070282;28;21017;-77
2021/12/14 12:36:12;;;;;;;18.53;17.00;;;13.60;99.90;;;;;;5070112;28;20538;-77
2021/12/14 12:38:45;;;;;;;18.73;17.43;;;13.00;99.90;;;;;;5070235;28;20439;-77
2021/12/14 12:41:26;;;;;;;19.70;18.50;;;12.40;99.90;;;;;;5070327;28;20549;-76
2021/12/14 12:43:56;;;;;;;19.23;17.67;;;12.10;99.90;;;;;;5070226;28;20462;-77
2021/12/14 12:46:26;;;;;;;20.10;18.40;;;12.10;99.90;;;;;;5070365;28;20447;-77
2021/12/14 12:49:16;;;;;;;19.37;17.87;;;11.90;99.90;;;;;;5070061;28;20487;-78
2021/12/14 12:52:01;;;;;;;19.47;18.07;;;11.40;99.90;;;;;;5067987;28;20540;-79
2021/12/14 12:54:56;;;;;;;20.20;18.23;;;11.00;99.90;;;;;;5069836;28;20976;-79
2021/12/14 12:57:53;;;;;;;19.80;18.60;;;11.10;99.90;;;;;;5069877;28;20861;-79
2021/12/14 13:00:27;;;;;;;20.37;18.63;;;10.70;99.90;;;;;;5070065;28;20557;-77
2021/12/14 13:02:57;;;;;;;19.97;18.50;;;10.60;99.90;;;;;;5070110;28;21022;-79
2021/12/14 13:05:28;;;;;;;21.20;19.70;;;10.40;99.90;;;;;;5071718;28;20449;-79
2021/12/14 13:08:05;;;;;;;20.80;19.33;;;10.20;99.90;;;;;;5073524;28;20826;-79
2021/12/14 13:10:35;;;;;;;22.07;20.47;;;10.20;99.90;;;;;;5073784;28;20992;-79
2021/12/14 13:13:07;;;;;;;20.73;19.03;;;10.20;99.90;;;;;;5073879;28;20474;-79
2021/12/14 13:15:53;;;;;;;20.53;18.80;;;10.50;99.90;;;;;;5073696;28;20494;-78
2021/12/14 13:18:46;;;;;;;20.30;18.70;;;10.50;99.90;;;;;;5073480;28;20464;-78
2021/12/14 13:21:22;;;;;;;19.33;17.87;;;10.40;99.90;;;;;;5073512;28;20447;-78
2021/12/14 13:24:24;;;;;;;19.70;18.10;;;10.20;99.90;;;;;;5073260;28;20470;-78
2021/12/14 13:26:58;;;;;;;21.77;19.93;;;10.10;99.90;;;;;;5058042;28;20481;-79